Manilla, Indiana
Current Conditions -  °F | °C
As of 10:53 PM on Monday 22 Dec 2014 (Local Time) from KGEZ Reporting Station
Moderate Rain Moderate Rain  
Wind Chill: 43°   Ceiling: 3800
Heat Index: 48°   Visibility: 5mi
Dew Point: 42°   Wind: 10mph
Humidity: 80%   Direction: 130°SE
Pressure: 29.67"   Gusts: NA
Location:  39.57°N, 85.62°W
Report Text: KGEZ 230353Z AUTO 13009KT 5SM RA SCT027 BKN038 OVC049 09/06 A2967 RMK AO2 RAB40 SLP050 P0002 T00890056
Loading
Personal Weather Stations






























Interactive Weather Map New forecast layout! Learn more

10-Day Weather Forecast

Advertisements
Track Severe Weather on mobile